메인 페이지
METAR-TAF:

METAR-TAF

공항 :

팔마데마요르카, 스페인

위도: 39-33N, 경도: 002-44E, 고도: 4m

현재 날씨관측

예보는 37분 전, 04:00시(UTC)에 발표되었습니다.
동북동4kt
온도 12°C
습도 94%
기압 1012 hPa
시정 10km 이상
고도 2500ft 상공 구름 조금

METAR: LEPA 220400Z 07004KT 9999 FEW025 12/11 Q1012 NOSIG

시각: 06:37 (04:37 UTC)

예보

예보는 5 시간 37분 전, 23:00시(UTC)에 발표되었습니다.
예보 대상 시간: 22일 00시부터 22일 24시까지 (UTC)
여러 방향의 바람 4kt
시정 10km 이상
고도 2000ft 상공 구름 조금
고도 3500ft 상공 구름 보통
확률 40% :
일시적
22일 00시부터 22일 06시까지 (UTC)
시정: 2000m
박무
전환 중
22일 07시부터 22일 10시까지 (UTC)
남서10kt
확률 40% :
일시적
22일 12시부터 22일 18시까지 (UTC)
고도 2500ft 상공 구름 조금, 적란운.
전환 중
22일 19시부터 22일 22시까지 (UTC)
여러 방향의 바람 4kt

TAF: LEPA 212300Z 2200/2224 VRB04KT 9999 FEW020 SCT035 TX23/2212Z TN12/2206Z PROB40 TEMPO 2200/2206 2000 BR BECMG 2207/2210 22010KT PROB40 TEMPO 2212/2218 FEW025CB BECMG 2219/2222 VRB04KT

4,000개 이상의 공항 관측 자료 및 예보 (METAR 및 TAF 보고).

지도상에서 검색 가능한 기상관측소가 노란 점과 빨간 점으로 표시되어 있습니다.

기상관측소 명을 보려면 표시 위로 마우스를 이동하세요.

날씨 관측과 예보를 보려면 클릭하세요.

지도 변경 : 확대하려면 엑스 표시가 있는 녹색 버튼, 축소하려면 빼기 표시가 있는 녹색 버튼, 다음 페이지의 지도를 보려면 녹색 화살표를 클릭하세요.


METAR-TAF: